sensor_id;sensor_type;location;lat;lon;timestamp;temperature;humidity
23562;DHT22;11959;49.418;8.728;2023-02-01T00:01:37;5.90;99.90
23562;DHT22;11959;49.418;8.728;2023-02-01T00:04:03;5.90;99.90
23562;DHT22;11959;49.418;8.728;2023-02-01T00:06:29;5.90;99.90
23562;DHT22;11959;49.418;8.728;2023-02-01T00:08:55;6.00;99.90
23562;DHT22;11959;49.418;8.728;2023-02-01T00:11:22;6.00;99.90
23562;DHT22;11959;49.418;8.728;2023-02-01T00:13:48;6.00;99.90
23562;DHT22;11959;49.418;8.728;2023-02-01T00:16:26;5.90;99.90
23562;DHT22;11959;49.418;8.728;2023-02-01T00:19:00;5.90;99.90
23562;DHT22;11959;49.418;8.728;2023-02-01T00:21:26;6.00;99.90
23562;DHT22;11959;49.418;8.728;2023-02-01T00:23:51;6.00;99.90
23562;DHT22;11959;49.418;8.728;2023-02-01T00:26:30;6.00;99.90
23562;DHT22;11959;49.418;8.728;2023-02-01T00:28:56;6.00;99.90
23562;DHT22;11959;49.418;8.728;2023-02-01T00:31:21;6.00;99.90
23562;DHT22;11959;49.418;8.728;2023-02-01T00:33:48;6.00;99.90
23562;DHT22;11959;49.418;8.728;2023-02-01T00:36:14;6.10;99.90
23562;DHT22;11959;49.418;8.728;2023-02-01T00:38:40;6.00;99.90
23562;DHT22;11959;49.418;8.728;2023-02-01T00:41:08;6.10;99.90
23562;DHT22;11959;49.418;8.728;2023-02-01T00:43:35;6.10;99.90
23562;DHT22;11959;49.418;8.728;2023-02-01T00:46:00;6.10;99.90
23562;DHT22;11959;49.418;8.728;2023-02-01T00:48:26;6.10;99.90
23562;DHT22;11959;49.418;8.728;2023-02-01T00:50:52;6.10;99.90
23562;DHT22;11959;49.418;8.728;2023-02-01T00:53:18;6.10;99.90
23562;DHT22;11959;49.418;8.728;2023-02-01T00:55:47;6.10;99.90
23562;DHT22;11959;49.418;8.728;2023-02-01T00:58:13;6.10;99.90
23562;DHT22;11959;49.418;8.728;2023-02-01T01:00:39;6.00;99.90
23562;DHT22;11959;49.418;8.728;2023-02-01T01:03:05;6.10;99.90
23562;DHT22;11959;49.418;8.728;2023-02-01T01:05:57;6.10;99.90
23562;DHT22;11959;49.418;8.728;2023-02-01T01:08:23;6.20;99.90
23562;DHT22;11959;49.418;8.728;2023-02-01T01:10:48;6.10;99.90
23562;DHT22;11959;49.418;8.728;2023-02-01T01:13:15;6.10;99.90
23562;DHT22;11959;49.418;8.728;2023-02-01T01:15:41;6.10;99.90
23562;DHT22;11959;49.418;8.728;2023-02-01T01:18:08;6.10;99.90
23562;DHT22;11959;49.418;8.728;2023-02-01T01:20:35;6.10;99.90
23562;DHT22;11959;49.418;8.728;2023-02-01T01:23:01;6.10;99.90
23562;DHT22;11959;49.418;8.728;2023-02-01T01:25:27;6.10;99.90
23562;DHT22;11959;49.418;8.728;2023-02-01T01:27:52;6.10;99.90
23562;DHT22;11959;49.418;8.728;2023-02-01T01:30:18;6.10;99.90
23562;DHT22;11959;49.418;8.728;2023-02-01T01:32:44;6.10;99.90
23562;DHT22;11959;49.418;8.728;2023-02-01T01:35:10;6.10;99.90
23562;DHT22;11959;49.418;8.728;2023-02-01T01:37:36;6.10;99.90
23562;DHT22;11959;49.418;8.728;2023-02-01T01:40:03;6.10;99.90
23562;DHT22;11959;49.418;8.728;2023-02-01T01:42:28;6.10;99.90
23562;DHT22;11959;49.418;8.728;2023-02-01T01:45:06;6.10;99.90
23562;DHT22;11959;49.418;8.728;2023-02-01T01:47:37;6.10;99.90
23562;DHT22;11959;49.418;8.728;2023-02-01T01:50:08;6.10;99.90
23562;DHT22;11959;49.418;8.728;2023-02-01T01:52:37;6.10;99.90
23562;DHT22;11959;49.418;8.728;2023-02-01T01:55:04;6.10;99.90
23562;DHT22;11959;49.418;8.728;2023-02-01T01:57:35;6.20;99.90
23562;DHT22;11959;49.418;8.728;2023-02-01T02:00:09;6.10;99.90
23562;DHT22;11959;49.418;8.728;2023-02-01T02:02:39;6.10;99.90
23562;DHT22;11959;49.418;8.728;2023-02-01T02:05:06;6.10;99.90
23562;DHT22;11959;49.418;8.728;2023-02-01T02:07:35;6.10;99.90
23562;DHT22;11959;49.418;8.728;2023-02-01T02:10:05;6.20;99.90
23562;DHT22;11959;49.418;8.728;2023-02-01T02:12:31;6.10;99.90
23562;DHT22;11959;49.418;8.728;2023-02-01T02:14:58;6.20;99.90
23562;DHT22;11959;49.418;8.728;2023-02-01T02:17:27;6.20;99.90
23562;DHT22;11959;49.418;8.728;2023-02-01T02:23:03;6.10;99.90
23562;DHT22;11959;49.418;8.728;2023-02-01T02:25:45;6.10;99.90
23562;DHT22;11959;49.418;8.728;2023-02-01T02:33:36;6.10;99.90
23562;DHT22;11959;49.418;8.728;2023-02-01T02:36:21;6.10;99.90
23562;DHT22;11959;49.418;8.728;2023-02-01T02:39:09;6.20;99.90
23562;DHT22;11959;49.418;8.728;2023-02-01T02:44:49;6.10;99.90
23562;DHT22;11959;49.418;8.728;2023-02-01T02:50:21;6.20;99.90
23562;DHT22;11959;49.418;8.728;2023-02-01T02:53:15;6.10;99.90
23562;DHT22;11959;49.418;8.728;2023-02-01T02:56:01;6.20;99.90
23562;DHT22;11959;49.418;8.728;2023-02-01T02:58:47;6.10;99.90
23562;DHT22;11959;49.418;8.728;2023-02-01T03:01:32;6.10;99.90
23562;DHT22;11959;49.418;8.728;2023-02-01T03:04:16;6.10;99.90
23562;DHT22;11959;49.418;8.728;2023-02-01T03:06:46;6.10;99.90
23562;DHT22;11959;49.418;8.728;2023-02-01T03:09:31;6.20;99.90
23562;DHT22;11959;49.418;8.728;2023-02-01T03:12:04;6.20;99.90
23562;DHT22;11959;49.418;8.728;2023-02-01T03:14:57;6.20;99.90
23562;DHT22;11959;49.418;8.728;2023-02-01T03:17:29;6.20;99.90
23562;DHT22;11959;49.418;8.728;2023-02-01T03:19:59;6.20;99.90
23562;DHT22;11959;49.418;8.728;2023-02-01T03:22:28;6.20;99.90
23562;DHT22;11959;49.418;8.728;2023-02-01T03:25:10;6.20;99.90
23562;DHT22;11959;49.418;8.728;2023-02-01T03:27:47;6.20;99.90
23562;DHT22;11959;49.418;8.728;2023-02-01T03:30:21;6.20;99.90
23562;DHT22;11959;49.418;8.728;2023-02-01T03:32:50;6.20;99.90
23562;DHT22;11959;49.418;8.728;2023-02-01T03:35:47;6.20;99.90
23562;DHT22;11959;49.418;8.728;2023-02-01T03:43:52;6.20;99.90
23562;DHT22;11959;49.418;8.728;2023-02-01T03:46:25;6.20;99.90
23562;DHT22;11959;49.418;8.728;2023-02-01T03:48:53;6.10;99.90
23562;DHT22;11959;49.418;8.728;2023-02-01T03:51:21;6.10;99.90
23562;DHT22;11959;49.418;8.728;2023-02-01T03:53:49;6.10;99.90
23562;DHT22;11959;49.418;8.728;2023-02-01T03:56:16;6.10;99.90
23562;DHT22;11959;49.418;8.728;2023-02-01T03:58:42;6.10;99.90
23562;DHT22;11959;49.418;8.728;2023-02-01T04:01:23;6.20;99.90
23562;DHT22;11959;49.418;8.728;2023-02-01T04:03:48;6.10;99.90
23562;DHT22;11959;49.418;8.728;2023-02-01T04:06:16;6.20;99.90
23562;DHT22;11959;49.418;8.728;2023-02-01T04:08:42;6.20;99.90
23562;DHT22;11959;49.418;8.728;2023-02-01T04:11:08;6.20;99.90
23562;DHT22;11959;49.418;8.728;2023-02-01T04:13:33;6.20;99.90
23562;DHT22;11959;49.418;8.728;2023-02-01T04:15:59;6.20;99.90
23562;DHT22;11959;49.418;8.728;2023-02-01T04:18:24;6.20;99.90
23562;DHT22;11959;49.418;8.728;2023-02-01T04:20:50;6.20;99.90
23562;DHT22;11959;49.418;8.728;2023-02-01T04:23:16;6.20;99.90
23562;DHT22;11959;49.418;8.728;2023-02-01T04:25:42;6.20;99.90
23562;DHT22;11959;49.418;8.728;2023-02-01T04:28:07;6.20;99.90
23562;DHT22;11959;49.418;8.728;2023-02-01T04:30:33;6.20;99.90
23562;DHT22;11959;49.418;8.728;2023-02-01T04:32:59;6.20;99.90
23562;DHT22;11959;49.418;8.728;2023-02-01T04:35:24;6.10;99.90
23562;DHT22;11959;49.418;8.728;2023-02-01T04:37:50;6.20;99.90
23562;DHT22;11959;49.418;8.728;2023-02-01T04:40:16;6.20;99.90
23562;DHT22;11959;49.418;8.728;2023-02-01T04:42:41;6.20;99.90
23562;DHT22;11959;49.418;8.728;2023-02-01T04:45:07;6.20;99.90
23562;DHT22;11959;49.418;8.728;2023-02-01T04:47:34;6.20;99.90
23562;DHT22;11959;49.418;8.728;2023-02-01T04:50:00;6.20;99.90
23562;DHT22;11959;49.418;8.728;2023-02-01T04:52:25;6.20;99.90
23562;DHT22;11959;49.418;8.728;2023-02-01T04:54:52;6.20;99.90
23562;DHT22;11959;49.418;8.728;2023-02-01T04:57:19;6.20;99.90
23562;DHT22;11959;49.418;8.728;2023-02-01T04:59:45;6.30;99.90
23562;DHT22;11959;49.418;8.728;2023-02-01T05:02:11;6.30;99.90
23562;DHT22;11959;49.418;8.728;2023-02-01T05:04:36;6.30;99.90
23562;DHT22;11959;49.418;8.728;2023-02-01T05:07:02;6.30;99.90
23562;DHT22;11959;49.418;8.728;2023-02-01T05:09:28;6.30;99.90
23562;DHT22;11959;49.418;8.728;2023-02-01T05:11:53;6.30;99.90
23562;DHT22;11959;49.418;8.728;2023-02-01T05:14:37;6.30;99.90
23562;DHT22;11959;49.418;8.728;2023-02-01T05:17:03;6.30;99.90
23562;DHT22;11959;49.418;8.728;2023-02-01T05:19:28;6.30;99.90
23562;DHT22;11959;49.418;8.728;2023-02-01T05:21:54;6.30;99.90
23562;DHT22;11959;49.418;8.728;2023-02-01T05:24:20;6.30;99.90
23562;DHT22;11959;49.418;8.728;2023-02-01T05:26:47;6.20;99.90
23562;DHT22;11959;49.418;8.728;2023-02-01T05:29:13;6.20;99.90
23562;DHT22;11959;49.418;8.728;2023-02-01T05:31:40;6.20;99.90
23562;DHT22;11959;49.418;8.728;2023-02-01T05:34:06;6.20;99.90
23562;DHT22;11959;49.418;8.728;2023-02-01T05:36:32;6.10;99.90
23562;DHT22;11959;49.418;8.728;2023-02-01T05:38:57;6.10;99.90
23562;DHT22;11959;49.418;8.728;2023-02-01T05:41:23;6.10;99.90
23562;DHT22;11959;49.418;8.728;2023-02-01T05:43:49;6.10;99.90
23562;DHT22;11959;49.418;8.728;2023-02-01T05:46:15;6.10;99.90
23562;DHT22;11959;49.418;8.728;2023-02-01T05:48:41;6.10;99.90
23562;DHT22;11959;49.418;8.728;2023-02-01T05:51:08;6.00;99.90
23562;DHT22;11959;49.418;8.728;2023-02-01T05:53:34;6.00;99.90
23562;DHT22;11959;49.418;8.728;2023-02-01T05:55:59;6.10;99.90
23562;DHT22;11959;49.418;8.728;2023-02-01T05:58:25;6.10;99.90
23562;DHT22;11959;49.418;8.728;2023-02-01T06:00:50;6.00;99.90
23562;DHT22;11959;49.418;8.728;2023-02-01T06:03:16;6.00;99.90
23562;DHT22;11959;49.418;8.728;2023-02-01T06:05:44;6.00;99.90
23562;DHT22;11959;49.418;8.728;2023-02-01T06:08:10;6.00;99.90
23562;DHT22;11959;49.418;8.728;2023-02-01T06:10:36;6.00;99.90
23562;DHT22;11959;49.418;8.728;2023-02-01T06:13:02;6.10;99.90
23562;DHT22;11959;49.418;8.728;2023-02-01T06:15:29;6.10;99.90
23562;DHT22;11959;49.418;8.728;2023-02-01T06:17:55;6.10;99.90
23562;DHT22;11959;49.418;8.728;2023-02-01T06:20:20;6.10;99.90
23562;DHT22;11959;49.418;8.728;2023-02-01T06:22:46;6.10;99.90
23562;DHT22;11959;49.418;8.728;2023-02-01T06:25:12;6.10;99.90
23562;DHT22;11959;49.418;8.728;2023-02-01T06:27:38;6.10;99.90
23562;DHT22;11959;49.418;8.728;2023-02-01T06:30:05;6.00;99.90
23562;DHT22;11959;49.418;8.728;2023-02-01T06:32:31;6.00;99.90
23562;DHT22;11959;49.418;8.728;2023-02-01T06:34:56;6.10;99.90
23562;DHT22;11959;49.418;8.728;2023-02-01T06:37:23;6.00;99.90
23562;DHT22;11959;49.418;8.728;2023-02-01T06:39:50;6.00;99.90
23562;DHT22;11959;49.418;8.728;2023-02-01T06:42:16;6.00;99.90
23562;DHT22;11959;49.418;8.728;2023-02-01T06:44:42;6.00;99.90
23562;DHT22;11959;49.418;8.728;2023-02-01T06:47:07;6.00;99.90
23562;DHT22;11959;49.418;8.728;2023-02-01T06:49:33;6.00;99.90
23562;DHT22;11959;49.418;8.728;2023-02-01T06:51:59;6.00;99.90
23562;DHT22;11959;49.418;8.728;2023-02-01T06:54:27;6.00;99.90
23562;DHT22;11959;49.418;8.728;2023-02-01T06:56:53;6.00;99.90
23562;DHT22;11959;49.418;8.728;2023-02-01T06:59:19;6.00;99.90
23562;DHT22;11959;49.418;8.728;2023-02-01T07:01:45;6.00;99.90
23562;DHT22;11959;49.418;8.728;2023-02-01T07:04:11;6.00;99.90
23562;DHT22;11959;49.418;8.728;2023-02-01T07:06:37;6.10;99.90
23562;DHT22;11959;49.418;8.728;2023-02-01T07:09:03;6.00;99.90
23562;DHT22;11959;49.418;8.728;2023-02-01T07:11:29;6.10;99.90
23562;DHT22;11959;49.418;8.728;2023-02-01T07:13:55;6.10;99.90
23562;DHT22;11959;49.418;8.728;2023-02-01T07:16:21;6.00;99.90
23562;DHT22;11959;49.418;8.728;2023-02-01T07:18:49;6.00;99.90
23562;DHT22;11959;49.418;8.728;2023-02-01T07:21:14;6.00;99.90
23562;DHT22;11959;49.418;8.728;2023-02-01T07:23:40;6.00;99.90
23562;DHT22;11959;49.418;8.728;2023-02-01T07:26:09;6.10;99.90
23562;DHT22;11959;49.418;8.728;2023-02-01T07:28:35;6.10;99.90
23562;DHT22;11959;49.418;8.728;2023-02-01T07:31:11;6.20;99.90
23562;DHT22;11959;49.418;8.728;2023-02-01T07:33:38;6.10;99.90
23562;DHT22;11959;49.418;8.728;2023-02-01T07:36:06;6.10;99.90
23562;DHT22;11959;49.418;8.728;2023-02-01T07:38:31;6.10;99.90
23562;DHT22;11959;49.418;8.728;2023-02-01T07:40:58;6.20;99.90
23562;DHT22;11959;49.418;8.728;2023-02-01T07:43:25;6.30;99.90
23562;DHT22;11959;49.418;8.728;2023-02-01T07:45:52;6.30;99.90
23562;DHT22;11959;49.418;8.728;2023-02-01T07:48:19;6.30;99.90
23562;DHT22;11959;49.418;8.728;2023-02-01T07:50:44;6.30;99.90
23562;DHT22;11959;49.418;8.728;2023-02-01T07:53:10;6.30;99.90
23562;DHT22;11959;49.418;8.728;2023-02-01T07:55:39;6.30;99.90
23562;DHT22;11959;49.418;8.728;2023-02-01T07:58:05;6.30;99.90
23562;DHT22;11959;49.418;8.728;2023-02-01T08:00:31;6.40;99.90
23562;DHT22;11959;49.418;8.728;2023-02-01T08:03:15;6.40;99.90
23562;DHT22;11959;49.418;8.728;2023-02-01T08:05:41;6.40;99.90
23562;DHT22;11959;49.418;8.728;2023-02-01T08:08:08;6.50;99.90
23562;DHT22;11959;49.418;8.728;2023-02-01T08:10:34;6.40;99.90
23562;DHT22;11959;49.418;8.728;2023-02-01T08:13:01;6.50;99.90
23562;DHT22;11959;49.418;8.728;2023-02-01T08:15:28;6.50;99.90
23562;DHT22;11959;49.418;8.728;2023-02-01T08:17:54;6.60;99.90
23562;DHT22;11959;49.418;8.728;2023-02-01T08:20:23;6.60;99.90
23562;DHT22;11959;49.418;8.728;2023-02-01T08:22:50;6.60;99.90
23562;DHT22;11959;49.418;8.728;2023-02-01T08:25:16;6.70;99.90
23562;DHT22;11959;49.418;8.728;2023-02-01T08:27:42;6.70;99.90
23562;DHT22;11959;49.418;8.728;2023-02-01T08:30:09;6.80;99.90
23562;DHT22;11959;49.418;8.728;2023-02-01T08:32:35;6.80;99.90
23562;DHT22;11959;49.418;8.728;2023-02-01T08:35:01;6.80;99.90
23562;DHT22;11959;49.418;8.728;2023-02-01T08:37:27;6.90;99.90
23562;DHT22;11959;49.418;8.728;2023-02-01T08:39:53;7.00;99.90
23562;DHT22;11959;49.418;8.728;2023-02-01T08:42:18;7.00;99.90
23562;DHT22;11959;49.418;8.728;2023-02-01T08:45:04;7.00;99.90
23562;DHT22;11959;49.418;8.728;2023-02-01T08:47:30;7.00;99.90
23562;DHT22;11959;49.418;8.728;2023-02-01T08:49:55;6.90;99.90
23562;DHT22;11959;49.418;8.728;2023-02-01T08:52:21;6.90;99.90
23562;DHT22;11959;49.418;8.728;2023-02-01T08:54:46;6.90;99.90
23562;DHT22;11959;49.418;8.728;2023-02-01T08:57:12;6.90;99.90
23562;DHT22;11959;49.418;8.728;2023-02-01T08:59:38;6.80;99.90
23562;DHT22;11959;49.418;8.728;2023-02-01T09:02:04;6.80;99.90
23562;DHT22;11959;49.418;8.728;2023-02-01T09:04:29;6.80;99.90
23562;DHT22;11959;49.418;8.728;2023-02-01T09:06:55;6.80;99.90
23562;DHT22;11959;49.418;8.728;2023-02-01T09:09:22;6.80;99.90
23562;DHT22;11959;49.418;8.728;2023-02-01T09:11:48;6.70;99.90
23562;DHT22;11959;49.418;8.728;2023-02-01T09:14:16;6.80;99.90
23562;DHT22;11959;49.418;8.728;2023-02-01T09:16:41;6.80;99.90
23562;DHT22;11959;49.418;8.728;2023-02-01T09:19:07;6.80;99.90
23562;DHT22;11959;49.418;8.728;2023-02-01T09:21:33;6.70;99.90
23562;DHT22;11959;49.418;8.728;2023-02-01T09:23:58;6.80;99.90
23562;DHT22;11959;49.418;8.728;2023-02-01T09:26:24;6.80;99.90
23562;DHT22;11959;49.418;8.728;2023-02-01T09:28:51;6.80;99.90
23562;DHT22;11959;49.418;8.728;2023-02-01T09:31:16;6.80;99.90
23562;DHT22;11959;49.418;8.728;2023-02-01T09:33:42;6.80;99.90
23562;DHT22;11959;49.418;8.728;2023-02-01T09:36:08;6.80;99.90
23562;DHT22;11959;49.418;8.728;2023-02-01T09:38:34;6.90;99.90
23562;DHT22;11959;49.418;8.728;2023-02-01T09:41:00;6.90;99.90
23562;DHT22;11959;49.418;8.728;2023-02-01T09:46:19;7.00;99.90
23562;DHT22;11959;49.418;8.728;2023-02-01T09:48:47;7.00;99.90
23562;DHT22;11959;49.418;8.728;2023-02-01T09:51:16;7.00;99.90
23562;DHT22;11959;49.418;8.728;2023-02-01T09:53:48;7.10;99.90
23562;DHT22;11959;49.418;8.728;2023-02-01T09:56:23;7.10;99.90
23562;DHT22;11959;49.418;8.728;2023-02-01T10:01:45;7.20;99.90
23562;DHT22;11959;49.418;8.728;2023-02-01T10:04:13;7.20;99.90
23562;DHT22;11959;49.418;8.728;2023-02-01T10:06:55;7.20;99.90
23562;DHT22;11959;49.418;8.728;2023-02-01T10:09:43;7.20;99.90
23562;DHT22;11959;49.418;8.728;2023-02-01T10:26:09;7.10;99.90
23562;DHT22;11959;49.418;8.728;2023-02-01T10:28:38;7.10;99.90
23562;DHT22;11959;49.418;8.728;2023-02-01T10:31:05;7.20;99.90
23562;DHT22;11959;49.418;8.728;2023-02-01T10:33:34;7.20;99.90
23562;DHT22;11959;49.418;8.728;2023-02-01T10:38:32;7.20;99.90
23562;DHT22;11959;49.418;8.728;2023-02-01T10:41:20;7.20;99.90
23562;DHT22;11959;49.418;8.728;2023-02-01T10:43:50;7.20;99.90
23562;DHT22;11959;49.418;8.728;2023-02-01T10:46:17;7.20;99.90
23562;DHT22;11959;49.418;8.728;2023-02-01T10:48:43;7.20;99.90
23562;DHT22;11959;49.418;8.728;2023-02-01T10:51:21;7.20;99.90
23562;DHT22;11959;49.418;8.728;2023-02-01T10:53:57;7.20;99.90
23562;DHT22;11959;49.418;8.728;2023-02-01T10:56:28;7.10;99.90
23562;DHT22;11959;49.418;8.728;2023-02-01T10:59:17;7.10;99.90
23562;DHT22;11959;49.418;8.728;2023-02-01T11:01:46;7.20;99.90
23562;DHT22;11959;49.418;8.728;2023-02-01T11:04:19;7.20;99.90
23562;DHT22;11959;49.418;8.728;2023-02-01T11:07:06;7.10;99.90
23562;DHT22;11959;49.418;8.728;2023-02-01T11:09:38;7.20;99.90
23562;DHT22;11959;49.418;8.728;2023-02-01T11:12:07;7.10;99.90
23562;DHT22;11959;49.418;8.728;2023-02-01T11:14:47;7.10;99.90
23562;DHT22;11959;49.418;8.728;2023-02-01T11:17:39;7.10;99.90
23562;DHT22;11959;49.418;8.728;2023-02-01T11:20:16;7.10;99.90
23562;DHT22;11959;49.418;8.728;2023-02-01T11:22:47;7.10;99.90
23562;DHT22;11959;49.418;8.728;2023-02-01T11:25:16;7.20;99.90
23562;DHT22;11959;49.418;8.728;2023-02-01T11:27:41;7.20;99.90
23562;DHT22;11959;49.418;8.728;2023-02-01T11:30:13;7.20;99.90
23562;DHT22;11959;49.418;8.728;2023-02-01T11:32:40;7.20;99.90
23562;DHT22;11959;49.418;8.728;2023-02-01T11:35:06;7.20;99.90
23562;DHT22;11959;49.418;8.728;2023-02-01T11:37:42;7.20;99.90
23562;DHT22;11959;49.418;8.728;2023-02-01T11:43:34;7.30;99.90
23562;DHT22;11959;49.418;8.728;2023-02-01T11:46:03;7.30;99.90
23562;DHT22;11959;49.418;8.728;2023-02-01T11:48:32;7.30;99.90
23562;DHT22;11959;49.418;8.728;2023-02-01T12:07:56;7.20;99.90
23562;DHT22;11959;49.418;8.728;2023-02-01T12:13:13;7.20;99.90
23562;DHT22;11959;49.418;8.728;2023-02-01T12:16:13;7.20;99.90
23562;DHT22;11959;49.418;8.728;2023-02-01T12:25:16;7.20;99.90
23562;DHT22;11959;49.418;8.728;2023-02-01T12:33:07;7.20;99.90
23562;DHT22;11959;49.418;8.728;2023-02-01T12:41:50;7.30;99.90
23562;DHT22;11959;49.418;8.728;2023-02-01T12:44:29;7.30;99.90
23562;DHT22;11959;49.418;8.728;2023-02-01T12:47:12;7.30;99.90
23562;DHT22;11959;49.418;8.728;2023-02-01T12:55:17;7.30;99.90
23562;DHT22;11959;49.418;8.728;2023-02-01T12:58:15;7.30;99.90
23562;DHT22;11959;49.418;8.728;2023-02-01T13:00:51;7.40;99.90
23562;DHT22;11959;49.418;8.728;2023-02-01T13:04:01;7.30;99.90
23562;DHT22;11959;49.418;8.728;2023-02-01T13:11:31;7.30;99.90
23562;DHT22;11959;49.418;8.728;2023-02-01T13:14:13;7.30;99.90
23562;DHT22;11959;49.418;8.728;2023-02-01T13:16:48;7.20;99.90
23562;DHT22;11959;49.418;8.728;2023-02-01T13:19:28;7.30;99.90
23562;DHT22;11959;49.418;8.728;2023-02-01T13:22:06;7.30;99.90
23562;DHT22;11959;49.418;8.728;2023-02-01T13:24:50;7.20;99.90
23562;DHT22;11959;49.418;8.728;2023-02-01T13:27:18;7.20;99.90
23562;DHT22;11959;49.418;8.728;2023-02-01T13:29:54;7.30;99.90
23562;DHT22;11959;49.418;8.728;2023-02-01T13:38:22;7.20;99.90
23562;DHT22;11959;49.418;8.728;2023-02-01T13:43:06;7.20;99.90
23562;DHT22;11959;49.418;8.728;2023-02-01T13:45:36;7.20;99.90
23562;DHT22;11959;49.418;8.728;2023-02-01T13:48:36;7.20;99.90
23562;DHT22;11959;49.418;8.728;2023-02-01T13:51:04;7.30;99.90
23562;DHT22;11959;49.418;8.728;2023-02-01T13:53:35;7.30;99.90
23562;DHT22;11959;49.418;8.728;2023-02-01T13:56:03;7.30;99.90
23562;DHT22;11959;49.418;8.728;2023-02-01T13:58:37;7.20;99.90
23562;DHT22;11959;49.418;8.728;2023-02-01T14:03:57;7.20;99.90
23562;DHT22;11959;49.418;8.728;2023-02-01T14:11:51;7.20;99.90
23562;DHT22;11959;49.418;8.728;2023-02-01T14:16:44;7.20;99.90
23562;DHT22;11959;49.418;8.728;2023-02-01T14:19:33;7.30;99.90
23562;DHT22;11959;49.418;8.728;2023-02-01T14:24:50;7.20;99.90
23562;DHT22;11959;49.418;8.728;2023-02-01T14:27:20;7.20;99.90
23562;DHT22;11959;49.418;8.728;2023-02-01T14:29:52;7.20;99.90
23562;DHT22;11959;49.418;8.728;2023-02-01T14:32:40;7.20;99.90
23562;DHT22;11959;49.418;8.728;2023-02-01T14:35:20;7.30;99.90
23562;DHT22;11959;49.418;8.728;2023-02-01T14:37:51;7.30;99.90
23562;DHT22;11959;49.418;8.728;2023-02-01T14:40:23;7.30;99.90
23562;DHT22;11959;49.418;8.728;2023-02-01T14:42:52;7.30;99.90
23562;DHT22;11959;49.418;8.728;2023-02-01T14:47:50;7.30;99.90
23562;DHT22;11959;49.418;8.728;2023-02-01T14:50:36;7.30;99.90
23562;DHT22;11959;49.418;8.728;2023-02-01T14:53:21;7.30;99.90
23562;DHT22;11959;49.418;8.728;2023-02-01T15:01:33;7.30;99.90
23562;DHT22;11959;49.418;8.728;2023-02-01T15:04:06;7.30;99.90
23562;DHT22;11959;49.418;8.728;2023-02-01T15:06:38;7.30;99.90
23562;DHT22;11959;49.418;8.728;2023-02-01T15:14:38;7.20;99.90
23562;DHT22;11959;49.418;8.728;2023-02-01T15:17:23;7.30;99.90
23562;DHT22;11959;49.418;8.728;2023-02-01T15:19:57;7.30;99.90
23562;DHT22;11959;49.418;8.728;2023-02-01T15:22:24;7.30;99.90
23562;DHT22;11959;49.418;8.728;2023-02-01T15:25:00;7.30;99.90
23562;DHT22;11959;49.418;8.728;2023-02-01T15:27:27;7.40;99.90
23562;DHT22;11959;49.418;8.728;2023-02-01T15:29:53;7.40;99.90
23562;DHT22;11959;49.418;8.728;2023-02-01T15:32:37;7.40;99.90
23562;DHT22;11959;49.418;8.728;2023-02-01T15:35:04;7.40;99.90
23562;DHT22;11959;49.418;8.728;2023-02-01T15:37:31;7.50;99.90
23562;DHT22;11959;49.418;8.728;2023-02-01T15:42:36;7.50;99.90
23562;DHT22;11959;49.418;8.728;2023-02-01T15:45:03;7.50;99.90
23562;DHT22;11959;49.418;8.728;2023-02-01T15:47:30;7.50;99.90
23562;DHT22;11959;49.418;8.728;2023-02-01T15:50:00;7.50;99.90
23562;DHT22;11959;49.418;8.728;2023-02-01T15:52:37;7.60;99.90
23562;DHT22;11959;49.418;8.728;2023-02-01T15:55:19;7.60;99.90
23562;DHT22;11959;49.418;8.728;2023-02-01T15:57:46;7.60;99.90
23562;DHT22;11959;49.418;8.728;2023-02-01T16:02:55;7.60;99.90
23562;DHT22;11959;49.418;8.728;2023-02-01T16:05:39;7.60;99.90
23562;DHT22;11959;49.418;8.728;2023-02-01T16:08:26;7.60;99.90
23562;DHT22;11959;49.418;8.728;2023-02-01T16:10:54;7.60;99.90
23562;DHT22;11959;49.418;8.728;2023-02-01T16:13:20;7.60;99.90
23562;DHT22;11959;49.418;8.728;2023-02-01T16:15:48;7.50;99.90
23562;DHT22;11959;49.418;8.728;2023-02-01T16:18:14;7.50;99.90
23562;DHT22;11959;49.418;8.728;2023-02-01T16:20:41;7.50;99.90
23562;DHT22;11959;49.418;8.728;2023-02-01T16:23:07;7.60;99.90
23562;DHT22;11959;49.418;8.728;2023-02-01T16:25:33;7.60;99.90
23562;DHT22;11959;49.418;8.728;2023-02-01T16:27:59;7.60;99.90
23562;DHT22;11959;49.418;8.728;2023-02-01T16:30:25;7.60;99.90
23562;DHT22;11959;49.418;8.728;2023-02-01T16:32:55;7.50;99.90
23562;DHT22;11959;49.418;8.728;2023-02-01T16:37:48;7.50;99.90
23562;DHT22;11959;49.418;8.728;2023-02-01T16:40:16;7.50;99.90
23562;DHT22;11959;49.418;8.728;2023-02-01T16:42:42;7.50;99.90
23562;DHT22;11959;49.418;8.728;2023-02-01T16:45:08;7.50;99.90
23562;DHT22;11959;49.418;8.728;2023-02-01T16:47:37;7.50;99.90
23562;DHT22;11959;49.418;8.728;2023-02-01T16:50:03;7.50;99.90
23562;DHT22;11959;49.418;8.728;2023-02-01T16:52:29;7.50;99.90
23562;DHT22;11959;49.418;8.728;2023-02-01T16:54:55;7.60;99.90
23562;DHT22;11959;49.418;8.728;2023-02-01T16:57:21;7.50;99.90
23562;DHT22;11959;49.418;8.728;2023-02-01T16:59:51;7.50;99.90
23562;DHT22;11959;49.418;8.728;2023-02-01T17:02:18;7.50;99.90
23562;DHT22;11959;49.418;8.728;2023-02-01T17:04:45;7.50;99.90
23562;DHT22;11959;49.418;8.728;2023-02-01T17:07:15;7.60;99.90
23562;DHT22;11959;49.418;8.728;2023-02-01T17:09:42;7.50;99.90
23562;DHT22;11959;49.418;8.728;2023-02-01T17:12:24;7.50;99.90
23562;DHT22;11959;49.418;8.728;2023-02-01T17:14:50;7.50;99.90
23562;DHT22;11959;49.418;8.728;2023-02-01T17:17:16;7.50;99.90
23562;DHT22;11959;49.418;8.728;2023-02-01T17:19:43;7.50;99.90
23562;DHT22;11959;49.418;8.728;2023-02-01T17:22:10;7.50;99.90
23562;DHT22;11959;49.418;8.728;2023-02-01T17:24:35;7.50;99.90
23562;DHT22;11959;49.418;8.728;2023-02-01T17:27:01;7.60;99.90
23562;DHT22;11959;49.418;8.728;2023-02-01T17:29:28;7.50;99.90
23562;DHT22;11959;49.418;8.728;2023-02-01T17:31:55;7.60;99.90
23562;DHT22;11959;49.418;8.728;2023-02-01T17:34:21;7.60;99.90
23562;DHT22;11959;49.418;8.728;2023-02-01T17:36:48;7.60;99.90
23562;DHT22;11959;49.418;8.728;2023-02-01T17:39:14;7.60;99.90
23562;DHT22;11959;49.418;8.728;2023-02-01T17:42:01;7.60;99.90
23562;DHT22;11959;49.418;8.728;2023-02-01T17:44:27;7.60;99.90
23562;DHT22;11959;49.418;8.728;2023-02-01T17:46:52;7.60;99.90
23562;DHT22;11959;49.418;8.728;2023-02-01T17:49:18;7.60;99.90
23562;DHT22;11959;49.418;8.728;2023-02-01T17:51:44;7.60;99.90
23562;DHT22;11959;49.418;8.728;2023-02-01T17:54:13;7.60;99.90
23562;DHT22;11959;49.418;8.728;2023-02-01T17:56:39;7.70;99.90
23562;DHT22;11959;49.418;8.728;2023-02-01T17:59:05;7.60;99.90
23562;DHT22;11959;49.418;8.728;2023-02-01T18:01:30;7.60;99.90
23562;DHT22;11959;49.418;8.728;2023-02-01T18:03:57;7.60;99.90
23562;DHT22;11959;49.418;8.728;2023-02-01T18:06:24;7.60;99.90
23562;DHT22;11959;49.418;8.728;2023-02-01T18:08:51;7.60;99.90
23562;DHT22;11959;49.418;8.728;2023-02-01T18:11:22;7.60;99.90
23562;DHT22;11959;49.418;8.728;2023-02-01T18:13:49;7.60;99.90
23562;DHT22;11959;49.418;8.728;2023-02-01T18:18:45;7.60;99.90
23562;DHT22;11959;49.418;8.728;2023-02-01T18:21:12;7.60;99.90